Time;durP1;ratioP1;P1;durP2;ratioP2;P2;SDS_P1;SDS_P2;PMS_P1;PMS_P2;Temp;Humidity;BMP_temperature;BMP_pressure;BME280_temperature;BME280_humidity;BME280_pressure;Samples;Min_cycle;Max_cycle;Signal;HPM_P1;HPM_P2
2023/05/04 00:00:38;;;;;;;8.15;5.97;;;;;;;;;;5005146;28;20058;-86
2023/05/04 00:03:04;;;;;;;6.38;5.40;;;;;;;;;;5019391;28;20061;-86
2023/05/04 00:05:29;;;;;;;8.57;5.93;;;;;;;;;;5004234;28;20034;-85
2023/05/04 00:07:55;;;;;;;8.80;6.75;;;;;;;;;;5004946;28;20042;-85
2023/05/04 00:10:20;;;;;;;10.77;5.90;;;;;;;;;;5018312;28;20036;-86
2023/05/04 00:12:46;;;;;;;6.85;5.40;;;;;;;;;;5021633;28;20042;-86
2023/05/04 00:15:11;;;;;;;6.93;5.53;;;;;;;;;;5034117;28;20042;-86
2023/05/04 00:17:38;;;;;;;8.48;5.53;;;;;;;;;;5013339;28;20038;-85
2023/05/04 00:20:04;;;;;;;7.63;5.68;;;;;;;;;;5004693;28;20078;-86
2023/05/04 00:22:30;;;;;;;8.98;5.55;;;;;;;;;;5005055;28;20034;-85
2023/05/04 00:24:55;;;;;;;7.00;5.30;;;;;;;;;;5019565;28;20042;-85
2023/05/04 00:27:21;;;;;;;6.82;5.20;;;;;;;;;;5021547;28;20057;-86
2023/05/04 00:29:46;;;;;;;6.70;5.30;;;;;;;;;;5020202;28;20041;-86
2023/05/04 00:32:12;;;;;;;6.75;4.95;;;;;;;;;;5016225;28;20044;-86
2023/05/04 00:34:37;;;;;;;7.90;5.47;;;;;;;;;;5014372;28;20033;-86
2023/05/04 00:37:03;;;;;;;8.32;5.78;;;;;;;;;;5012993;28;20030;-85
2023/05/04 00:39:29;;;;;;;6.82;5.30;;;;;;;;;;5021598;28;20045;-86
2023/05/04 00:41:55;;;;;;;7.63;5.00;;;;;;;;;;5020914;28;20061;-86
2023/05/04 00:44:22;;;;;;;7.55;5.18;;;;;;;;;;5003824;28;20068;-86
2023/05/04 00:46:49;;;;;;;6.00;4.85;;;;;;;;;;5019060;28;20128;-86
2023/05/04 00:49:15;;;;;;;6.88;5.30;;;;;;;;;;4999367;28;20034;-86
2023/05/04 00:51:41;;;;;;;8.65;6.25;;;;;;;;;;5023449;28;20049;-86
2023/05/04 00:54:06;;;;;;;6.65;5.28;;;;;;;;;;5020761;28;20037;-85
2023/05/04 00:56:32;;;;;;;7.20;5.40;;;;;;;;;;5007761;28;20082;-85
2023/05/04 00:58:58;;;;;;;7.50;5.18;;;;;;;;;;5007445;28;20041;-86
2023/05/04 01:01:24;;;;;;;9.23;5.53;;;;;;;;;;5005354;28;20030;-86
2023/05/04 01:03:51;;;;;;;6.93;5.05;;;;;;;;;;5004325;28;20034;-85
2023/05/04 01:06:28;;;;;;;8.18;5.70;;;;;;;;;;5021295;28;20424;-85
2023/05/04 01:09:09;;;;;;;8.10;5.38;;;;;;;;;;5005204;28;20513;-86
2023/05/04 01:12:07;;;;;;;8.35;5.10;;;;;;;;;;5008091;28;20038;-86
2023/05/04 01:14:34;;;;;;;7.53;5.53;;;;;;;;;;5007871;28;20073;-86
2023/05/04 01:17:06;;;;;;;7.38;5.50;;;;;;;;;;5042762;28;20030;-86
2023/05/04 01:19:32;;;;;;;8.65;5.70;;;;;;;;;;5023253;28;20049;-85
2023/05/04 01:21:58;;;;;;;11.23;5.40;;;;;;;;;;5036376;28;20022;-86
2023/05/04 01:24:25;;;;;;;8.00;5.75;;;;;;;;;;5022501;28;20038;-87
2023/05/04 01:27:01;;;;;;;8.90;5.82;;;;;;;;;;4991894;28;20030;-85
2023/05/04 01:29:35;;;;;;;6.20;5.18;;;;;;;;;;5009486;28;20058;-86
2023/05/04 01:32:01;;;;;;;8.68;5.70;;;;;;;;;;5031449;28;20030;-86
2023/05/04 01:34:27;;;;;;;7.43;4.97;;;;;;;;;;5039392;28;20069;-85
2023/05/04 01:36:53;;;;;;;9.43;5.25;;;;;;;;;;5030910;28;20035;-87
2023/05/04 01:39:19;;;;;;;9.88;5.18;;;;;;;;;;5007511;28;20054;-85
2023/05/04 01:41:44;;;;;;;7.88;5.38;;;;;;;;;;5007456;28;20120;-87
2023/05/04 01:44:10;;;;;;;8.77;4.95;;;;;;;;;;5026864;28;20038;-87
2023/05/04 01:46:35;;;;;;;6.75;4.65;;;;;;;;;;5008623;28;20030;-86
2023/05/04 01:49:01;;;;;;;8.52;4.75;;;;;;;;;;5007022;28;20092;-87
2023/05/04 01:51:26;;;;;;;5.97;4.22;;;;;;;;;;5019457;28;20128;-86
2023/05/04 01:53:52;;;;;;;6.28;4.15;;;;;;;;;;5019358;28;20026;-86
2023/05/04 01:56:17;;;;;;;5.95;4.28;;;;;;;;;;5017397;28;20722;-86
2023/05/04 01:58:43;;;;;;;6.10;4.65;;;;;;;;;;5029201;28;20034;-87
2023/05/04 02:01:09;;;;;;;5.85;4.60;;;;;;;;;;5009082;28;20042;-86
2023/05/04 02:03:34;;;;;;;5.82;4.63;;;;;;;;;;5006170;28;20057;-86
2023/05/04 02:06:00;;;;;;;6.47;4.97;;;;;;;;;;5022210;28;20038;-85
2023/05/04 02:08:25;;;;;;;6.03;5.07;;;;;;;;;;5005641;28;20034;-86
2023/05/04 02:10:51;;;;;;;7.07;5.22;;;;;;;;;;5006565;28;20132;-86
2023/05/04 02:13:18;;;;;;;6.97;5.00;;;;;;;;;;5021105;28;20408;-87
2023/05/04 02:15:43;;;;;;;6.47;4.90;;;;;;;;;;5007331;28;20058;-87
2023/05/04 02:18:09;;;;;;;6.95;5.05;;;;;;;;;;5001739;28;20038;-86
2023/05/04 02:20:34;;;;;;;8.82;5.80;;;;;;;;;;5007776;28;20116;-85
2023/05/04 02:23:00;;;;;;;7.22;4.97;;;;;;;;;;5014543;28;20036;-85
2023/05/04 02:25:25;;;;;;;7.15;5.47;;;;;;;;;;5011923;28;20483;-85
2023/05/04 02:27:51;;;;;;;10.48;5.28;;;;;;;;;;5004341;28;20041;-85
2023/05/04 02:30:17;;;;;;;7.68;5.28;;;;;;;;;;5016388;28;20026;-85
2023/05/04 02:32:43;;;;;;;6.35;4.90;;;;;;;;;;5008905;28;20030;-84
2023/05/04 02:35:08;;;;;;;6.60;5.07;;;;;;;;;;4998152;28;20498;-86
2023/05/04 02:37:34;;;;;;;7.07;5.03;;;;;;;;;;5010001;28;20026;-85
2023/05/04 02:40:02;;;;;;;6.75;5.10;;;;;;;;;;5023060;28;20084;-85
2023/05/04 02:42:28;;;;;;;6.35;4.60;;;;;;;;;;4999476;28;20034;-85
2023/05/04 02:44:55;;;;;;;5.50;4.28;;;;;;;;;;5004468;28;20061;-85
2023/05/04 02:47:20;;;;;;;7.03;4.88;;;;;;;;;;5032431;28;20030;-86
2023/05/04 02:49:46;;;;;;;6.25;5.05;;;;;;;;;;5013246;28;20042;-86
2023/05/04 02:52:12;;;;;;;7.40;5.20;;;;;;;;;;5004907;28;20113;-86
2023/05/04 02:54:37;;;;;;;6.65;5.10;;;;;;;;;;5004135;28;20380;-87
2023/05/04 02:57:03;;;;;;;7.32;5.50;;;;;;;;;;5016548;28;20022;-86
2023/05/04 02:59:29;;;;;;;6.10;5.05;;;;;;;;;;5017308;28;20065;-86
2023/05/04 03:01:54;;;;;;;6.72;4.88;;;;;;;;;;5013394;28;20030;-86
2023/05/04 03:04:20;;;;;;;6.85;5.18;;;;;;;;;;5007178;28;20146;-85
2023/05/04 03:06:46;;;;;;;6.15;4.80;;;;;;;;;;5020829;28;20096;-86
2023/05/04 03:09:11;;;;;;;6.65;4.97;;;;;;;;;;5015942;28;20026;-86
2023/05/04 03:11:37;;;;;;;7.40;5.50;;;;;;;;;;5014852;28;20045;-87
2023/05/04 03:14:02;;;;;;;6.80;5.32;;;;;;;;;;5014081;28;20463;-85
2023/05/04 03:16:28;;;;;;;6.75;5.13;;;;;;;;;;5000489;28;20027;-85
2023/05/04 03:18:54;;;;;;;8.13;5.10;;;;;;;;;;4997605;28;20030;-85
2023/05/04 03:21:20;;;;;;;7.60;5.07;;;;;;;;;;5000591;28;20065;-85
2023/05/04 03:23:46;;;;;;;9.32;5.00;;;;;;;;;;4995834;28;20070;-85
2023/05/04 03:26:12;;;;;;;7.57;5.30;;;;;;;;;;5029402;28;20049;-86
2023/05/04 03:28:37;;;;;;;6.57;5.20;;;;;;;;;;5025356;28;20046;-86
2023/05/04 03:31:03;;;;;;;6.72;4.75;;;;;;;;;;5002691;28;20504;-85
2023/05/04 03:33:28;;;;;;;7.18;4.80;;;;;;;;;;5014660;28;20033;-85
2023/05/04 03:35:55;;;;;;;7.82;4.28;;;;;;;;;;5002509;28;20031;-85
2023/05/04 03:38:20;;;;;;;6.18;4.10;;;;;;;;;;5030175;28;20033;-85
2023/05/04 03:40:45;;;;;;;6.25;4.53;;;;;;;;;;5006804;28;20026;-85
2023/05/04 03:43:12;;;;;;;7.00;5.10;;;;;;;;;;5013493;28;20026;-86
2023/05/04 03:45:38;;;;;;;8.35;5.68;;;;;;;;;;4997633;28;20109;-86
2023/05/04 03:48:04;;;;;;;7.07;5.32;;;;;;;;;;5001910;28;20029;-86
2023/05/04 03:50:30;;;;;;;6.95;5.13;;;;;;;;;;5013837;28;20030;-84
2023/05/04 03:52:56;;;;;;;8.82;5.43;;;;;;;;;;5011440;28;20084;-85
2023/05/04 03:55:23;;;;;;;8.52;5.97;;;;;;;;;;5023885;28;20035;-85
2023/05/04 03:57:50;;;;;;;6.75;5.13;;;;;;;;;;5004691;28;20036;-86
2023/05/04 04:00:17;;;;;;;10.25;5.47;;;;;;;;;;4999055;28;20027;-86
2023/05/04 04:02:50;;;;;;;8.00;5.78;;;;;;;;;;4997173;28;20030;-86
2023/05/04 04:05:18;;;;;;;9.40;6.20;;;;;;;;;;5012861;28;20109;-87
2023/05/04 04:07:45;;;;;;;7.05;5.60;;;;;;;;;;4996256;28;20034;-86
2023/05/04 04:10:10;;;;;;;8.25;5.82;;;;;;;;;;5009830;28;20041;-85
2023/05/04 04:12:36;;;;;;;7.38;5.45;;;;;;;;;;4999402;28;20113;-85
2023/05/04 04:15:01;;;;;;;7.72;5.40;;;;;;;;;;5031123;28;20029;-85
2023/05/04 04:17:27;;;;;;;8.70;5.45;;;;;;;;;;5025900;28;20041;-87
2023/05/04 04:19:52;;;;;;;8.07;6.40;;;;;;;;;;5007897;28;20026;-86
2023/05/04 04:22:18;;;;;;;7.00;5.78;;;;;;;;;;5004587;28;20021;-87
2023/05/04 04:24:43;;;;;;;7.75;5.82;;;;;;;;;;4998725;28;20042;-87
2023/05/04 04:27:09;;;;;;;8.07;6.32;;;;;;;;;;5017004;28;20030;-84
2023/05/04 04:29:34;;;;;;;6.72;5.40;;;;;;;;;;4998219;28;20038;-84
2023/05/04 04:32:01;;;;;;;6.68;5.30;;;;;;;;;;5021799;28;20073;-83
2023/05/04 04:34:27;;;;;;;6.25;4.93;;;;;;;;;;5004182;28;20119;-85
2023/05/04 04:36:52;;;;;;;5.68;4.80;;;;;;;;;;5000357;28;20030;-85
2023/05/04 04:39:18;;;;;;;6.82;5.20;;;;;;;;;;5018776;28;20030;-86
2023/05/04 04:41:43;;;;;;;6.13;5.25;;;;;;;;;;5013707;28;20033;-86
2023/05/04 04:44:10;;;;;;;6.43;4.90;;;;;;;;;;5009239;28;20061;-84
2023/05/04 04:46:35;;;;;;;9.02;5.10;;;;;;;;;;5020062;28;20041;-85
2023/05/04 04:49:01;;;;;;;8.15;4.75;;;;;;;;;;5001819;28;20034;-85
2023/05/04 04:51:27;;;;;;;6.50;5.22;;;;;;;;;;4999084;28;20045;-86
2023/05/04 04:53:52;;;;;;;6.45;5.10;;;;;;;;;;5000337;28;20043;-87
2023/05/04 04:56:18;;;;;;;7.38;5.00;;;;;;;;;;4999806;28;20133;-87
2023/05/04 04:58:44;;;;;;;7.10;5.30;;;;;;;;;;5002981;28;20030;-86
2023/05/04 05:01:16;;;;;;;7.40;5.00;;;;;;;;;;5006129;28;20045;-88
2023/05/04 05:03:44;;;;;;;7.20;4.93;;;;;;;;;;5006308;28;20141;-87
2023/05/04 05:06:11;;;;;;;6.53;5.38;;;;;;;;;;5004166;28;20026;-86
2023/05/04 05:08:36;;;;;;;8.05;5.00;;;;;;;;;;5002625;28;20030;-86
2023/05/04 05:11:02;;;;;;;6.90;4.80;;;;;;;;;;5003302;28;20056;-86
2023/05/04 05:13:29;;;;;;;6.95;4.90;;;;;;;;;;5001835;28;20500;-87
2023/05/04 05:15:55;;;;;;;9.15;4.75;;;;;;;;;;5018493;28;20037;-87
2023/05/04 05:18:21;;;;;;;7.13;4.80;;;;;;;;;;5018425;28;20041;-86
2023/05/04 05:20:46;;;;;;;8.02;4.90;;;;;;;;;;5003298;28;20043;-86
2023/05/04 05:23:11;;;;;;;8.07;5.13;;;;;;;;;;5008384;28;20045;-85
2023/05/04 05:25:37;;;;;;;5.95;4.72;;;;;;;;;;5036084;28;20045;-86
2023/05/04 05:28:03;;;;;;;7.97;5.03;;;;;;;;;;5017203;28;20314;-87
2023/05/04 05:30:28;;;;;;;7.88;5.07;;;;;;;;;;5029100;28;20533;-87
2023/05/04 05:32:54;;;;;;;8.68;5.60;;;;;;;;;;5011452;28;20039;-87
2023/05/04 05:35:19;;;;;;;9.35;5.43;;;;;;;;;;5008347;28;20045;-87
2023/05/04 05:37:47;;;;;;;7.80;5.72;;;;;;;;;;5018788;28;20131;-87
2023/05/04 05:40:13;;;;;;;6.78;5.30;;;;;;;;;;5005206;28;20115;-87
2023/05/04 05:42:44;;;;;;;6.30;4.75;;;;;;;;;;5001701;28;20074;-87
2023/05/04 05:45:10;;;;;;;7.60;4.95;;;;;;;;;;4998207;28;20034;-84
2023/05/04 05:47:36;;;;;;;7.32;5.30;;;;;;;;;;5003953;28;20038;-86
2023/05/04 05:50:05;;;;;;;6.78;5.00;;;;;;;;;;5004613;28;20022;-85
2023/05/04 05:52:31;;;;;;;7.35;5.60;;;;;;;;;;5004169;28;20041;-86
2023/05/04 05:54:56;;;;;;;6.35;4.90;;;;;;;;;;5001258;28;20026;-86
2023/05/04 05:57:21;;;;;;;6.93;4.35;;;;;;;;;;4994410;28;20038;-87
2023/05/04 05:59:47;;;;;;;6.43;4.97;;;;;;;;;;4996790;28;20141;-86
2023/05/04 06:02:13;;;;;;;8.18;4.82;;;;;;;;;;5001525;28;20034;-86
2023/05/04 06:04:43;;;;;;;8.38;5.00;;;;;;;;;;4998487;28;20128;-87
2023/05/04 06:07:09;;;;;;;5.90;4.63;;;;;;;;;;5000039;28;20069;-85
2023/05/04 06:09:35;;;;;;;5.53;4.28;;;;;;;;;;4999175;28;20034;-85
2023/05/04 06:12:01;;;;;;;5.10;4.30;;;;;;;;;;5013766;28;20064;-86
2023/05/04 06:14:26;;;;;;;5.28;4.20;;;;;;;;;;4997744;28;20261;-86
2023/05/04 06:16:52;;;;;;;5.80;4.40;;;;;;;;;;5015219;28;20037;-86
2023/05/04 06:19:18;;;;;;;5.70;4.22;;;;;;;;;;5002110;28;20113;-86
2023/05/04 06:21:44;;;;;;;5.18;3.95;;;;;;;;;;5011789;28;20069;-86
2023/05/04 06:24:09;;;;;;;5.82;4.15;;;;;;;;;;5025002;28;20061;-84
2023/05/04 06:26:35;;;;;;;5.10;4.05;;;;;;;;;;5001774;28;20133;-86
2023/05/04 06:29:00;;;;;;;5.20;4.15;;;;;;;;;;5006773;28;20034;-87
2023/05/04 06:31:26;;;;;;;4.72;4.00;;;;;;;;;;5005049;28;20124;-87
2023/05/04 06:33:52;;;;;;;5.90;4.00;;;;;;;;;;5000000;28;20040;-87
2023/05/04 06:36:17;;;;;;;4.90;3.92;;;;;;;;;;4999124;28;20022;-87
2023/05/04 06:38:43;;;;;;;4.70;4.00;;;;;;;;;;5015643;28;20630;-86
2023/05/04 06:41:08;;;;;;;8.40;5.32;;;;;;;;;;5015598;28;20069;-88
2023/05/04 06:43:34;;;;;;;6.13;3.97;;;;;;;;;;5014185;28;20045;-86
2023/05/04 06:46:01;;;;;;;5.68;3.85;;;;;;;;;;4998860;28;20026;-86
2023/05/04 06:48:26;;;;;;;4.25;3.50;;;;;;;;;;5015163;28;20168;-86
2023/05/04 06:50:52;;;;;;;4.45;3.50;;;;;;;;;;5012686;28;20074;-86
2023/05/04 06:53:18;;;;;;;5.47;3.70;;;;;;;;;;5007677;28;20038;-85
2023/05/04 06:55:43;;;;;;;5.20;3.60;;;;;;;;;;5003877;28;20026;-85
2023/05/04 06:58:08;;;;;;;3.83;3.25;;;;;;;;;;4998712;28;20046;-86
2023/05/04 07:00:35;;;;;;;7.10;3.80;;;;;;;;;;5013912;28;20032;-86
2023/05/04 07:03:00;;;;;;;4.78;3.85;;;;;;;;;;5013664;28;20025;-85
2023/05/04 07:05:27;;;;;;;7.05;3.70;;;;;;;;;;4997948;28;20201;-86
2023/05/04 07:07:52;;;;;;;4.65;3.58;;;;;;;;;;5006493;28;20547;-86
2023/05/04 07:10:18;;;;;;;3.92;3.42;;;;;;;;;;5000579;28;20037;-85
2023/05/04 07:12:44;;;;;;;4.63;2.97;;;;;;;;;;4999897;28;20046;-84
2023/05/04 07:15:10;;;;;;;6.38;3.78;;;;;;;;;;5014011;28;20060;-86
2023/05/04 07:17:36;;;;;;;6.50;3.53;;;;;;;;;;5011433;28;20029;-85
2023/05/04 07:20:03;;;;;;;5.93;3.78;;;;;;;;;;5008494;28;20037;-87
2023/05/04 07:22:30;;;;;;;21.00;3.78;;;;;;;;;;4997472;28;20034;-88
2023/05/04 07:24:59;;;;;;;4.43;3.30;;;;;;;;;;5002592;28;20035;-88
2023/05/04 07:27:25;;;;;;;5.30;3.13;;;;;;;;;;5015880;28;20126;-87
2023/05/04 07:29:50;;;;;;;6.57;3.53;;;;;;;;;;5010101;28;20069;-87
2023/05/04 07:32:16;;;;;;;8.23;4.07;;;;;;;;;;5023579;28;20738;-87
2023/05/04 07:34:45;;;;;;;6.63;3.53;;;;;;;;;;5006399;28;20060;-87
2023/05/04 07:37:11;;;;;;;5.80;3.45;;;;;;;;;;4997568;28;20027;-86
2023/05/04 07:39:37;;;;;;;4.32;3.45;;;;;;;;;;5000583;28;20056;-87
2023/05/04 07:42:04;;;;;;;5.32;3.40;;;;;;;;;;5000020;28;20085;-87
2023/05/04 07:44:30;;;;;;;5.10;3.42;;;;;;;;;;5005261;28;20044;-88
2023/05/04 07:47:00;;;;;;;4.43;3.13;;;;;;;;;;4997590;28;20030;-89
2023/05/04 07:49:26;;;;;;;5.47;3.10;;;;;;;;;;4999423;28;20045;-87
2023/05/04 07:51:51;;;;;;;6.88;3.33;;;;;;;;;;5019829;28;20472;-87
2023/05/04 07:54:17;;;;;;;5.28;3.53;;;;;;;;;;5020903;28;20068;-88
2023/05/04 07:56:43;;;;;;;6.03;3.53;;;;;;;;;;5005669;28;20034;-87
2023/05/04 07:59:08;;;;;;;5.50;3.50;;;;;;;;;;5020341;28;20390;-90
2023/05/04 08:01:34;;;;;;;5.78;3.70;;;;;;;;;;5022383;28;20064;-89
2023/05/04 08:03:59;;;;;;;4.57;3.22;;;;;;;;;;5017816;28;20030;-90
2023/05/04 08:06:25;;;;;;;8.00;3.67;;;;;;;;;;5035608;28;20038;-88
2023/05/04 08:08:51;;;;;;;3.95;3.03;;;;;;;;;;5013006;28;20041;-87
2023/05/04 08:11:17;;;;;;;4.82;2.90;;;;;;;;;;5022012;28;20085;-86
2023/05/04 08:13:47;;;;;;;4.07;3.10;;;;;;;;;;5001842;28;20038;-86
2023/05/04 08:16:13;;;;;;;6.05;3.40;;;;;;;;;;4997072;28;20045;-87
2023/05/04 08:18:38;;;;;;;4.93;3.10;;;;;;;;;;4996353;28;20030;-87
2023/05/04 08:21:04;;;;;;;7.05;3.40;;;;;;;;;;4997641;28;20038;-87
2023/05/04 08:23:30;;;;;;;5.50;3.40;;;;;;;;;;4997750;28;20030;-88
2023/05/04 08:25:56;;;;;;;9.63;3.67;;;;;;;;;;4996080;28;20034;-86
2023/05/04 08:28:22;;;;;;;5.78;3.10;;;;;;;;;;5007517;28;20135;-87
2023/05/04 08:30:48;;;;;;;7.25;3.50;;;;;;;;;;5013985;28;20049;-85
2023/05/04 08:33:13;;;;;;;4.30;3.25;;;;;;;;;;4999145;28;20030;-87
2023/05/04 08:35:39;;;;;;;5.53;3.22;;;;;;;;;;4999343;28;20034;-87
2023/05/04 08:38:04;;;;;;;7.07;3.28;;;;;;;;;;4998750;28;20030;-87
2023/05/04 08:40:30;;;;;;;4.40;3.35;;;;;;;;;;5017922;28;20069;-87
2023/05/04 08:42:55;;;;;;;6.60;3.90;;;;;;;;;;5013276;28;20040;-86
2023/05/04 08:45:21;;;;;;;4.47;3.42;;;;;;;;;;5027818;28;20030;-86
2023/05/04 08:47:47;;;;;;;6.85;4.07;;;;;;;;;;5007442;28;20603;-86
2023/05/04 08:50:12;;;;;;;5.50;3.35;;;;;;;;;;5004044;28;20054;-86
2023/05/04 08:52:45;;;;;;;4.43;3.60;;;;;;;;;;5001112;28;20034;-88
2023/05/04 08:55:11;;;;;;;3.80;3.30;;;;;;;;;;4994856;28;20030;-87
2023/05/04 08:57:40;;;;;;;6.70;3.50;;;;;;;;;;5013093;28;20281;-87
2023/05/04 09:00:07;;;;;;;9.80;3.75;;;;;;;;;;4998288;28;20034;-87
2023/05/04 09:02:34;;;;;;;7.13;4.38;;;;;;;;;;4998502;28;20061;-87
2023/05/04 09:05:00;;;;;;;3.90;3.30;;;;;;;;;;4998731;28;20057;-86
2023/05/04 09:07:25;;;;;;;4.20;3.17;;;;;;;;;;5028410;28;20034;-86
2023/05/04 09:09:51;;;;;;;5.13;3.08;;;;;;;;;;5012916;28;20395;-86
2023/05/04 09:12:17;;;;;;;4.10;3.00;;;;;;;;;;5009379;28;20085;-87
2023/05/04 09:14:45;;;;;;;4.07;3.17;;;;;;;;;;5004858;28;20038;-86
2023/05/04 09:17:26;;;;;;;7.05;3.70;;;;;;;;;;5002359;28;20030;-86
2023/05/04 09:20:02;;;;;;;8.35;5.35;;;;;;;;;;5000585;28;20045;-86
2023/05/04 09:22:28;;;;;;;5.30;3.95;;;;;;;;;;4998335;28;20049;-86
2023/05/04 09:25:10;;;;;;;5.18;4.05;;;;;;;;;;4996232;28;20070;-86
2023/05/04 09:27:37;;;;;;;4.60;3.55;;;;;;;;;;4998447;28;20043;-86
2023/05/04 09:30:04;;;;;;;5.65;3.45;;;;;;;;;;4997265;28;20038;-86
2023/05/04 09:32:29;;;;;;;5.97;3.88;;;;;;;;;;5012328;28;20534;-85
2023/05/04 09:34:55;;;;;;;5.03;3.40;;;;;;;;;;5014585;28;20068;-86
2023/05/04 09:37:21;;;;;;;7.70;4.03;;;;;;;;;;5014458;28;20077;-85
2023/05/04 09:39:54;;;;;;;4.65;3.25;;;;;;;;;;5005798;28;20555;-86
2023/05/04 09:42:21;;;;;;;;;;;;;;;;;;5003690;28;20139;-86
2023/05/04 09:44:59;;;;;;;14.63;5.13;;;;;;;;;;5011930;28;19968;-87
2023/05/04 09:47:40;;;;;;;4.65;3.10;;;;;;;;;;5021831;28;20121;-87
2023/05/04 09:50:16;;;;;;;5.20;3.20;;;;;;;;;;5006596;28;20034;-86
2023/05/04 09:52:43;;;;;;;5.47;4.00;;;;;;;;;;5030281;28;20037;-87
2023/05/04 09:55:12;;;;;;;5.63;3.53;;;;;;;;;;5013241;28;20030;-87
2023/05/04 09:57:40;;;;;;;7.72;3.58;;;;;;;;;;5003388;28;20044;-87
2023/05/04 10:00:06;;;;;;;6.43;3.30;;;;;;;;;;5013943;28;20038;-86
2023/05/04 10:02:32;;;;;;;4.55;3.30;;;;;;;;;;5025201;28;20046;-86
2023/05/04 10:04:59;;;;;;;5.15;3.30;;;;;;;;;;5021078;28;20060;-86
2023/05/04 10:07:30;;;;;;;5.22;4.00;;;;;;;;;;5033264;28;20039;-86
2023/05/04 10:09:57;;;;;;;8.63;3.20;;;;;;;;;;5006688;28;20034;-84
2023/05/04 10:12:23;;;;;;;6.38;3.53;;;;;;;;;;5005766;28;20476;-84
2023/05/04 10:14:48;;;;;;;6.40;3.30;;;;;;;;;;4999164;28;20050;-84
2023/05/04 10:17:38;;;;;;;4.60;3.10;;;;;;;;;;4993712;28;20026;-84
2023/05/04 10:20:26;;;;;;;5.28;3.88;;;;;;;;;;5012876;28;20042;-83
2023/05/04 10:23:03;;;;;;;6.93;3.75;;;;;;;;;;5009486;28;20183;-83
2023/05/04 10:25:37;;;;;;;4.40;3.03;;;;;;;;;;5003061;28;20083;-86
2023/05/04 10:28:30;;;;;;;7.65;3.50;;;;;;;;;;4996360;28;20050;-85
2023/05/04 10:30:57;;;;;;;5.40;3.60;;;;;;;;;;4997103;28;20477;-86
2023/05/04 10:33:23;;;;;;;4.95;3.25;;;;;;;;;;4999648;28;20301;-84
2023/05/04 10:35:51;;;;;;;5.82;3.38;;;;;;;;;;5012942;28;20037;-84
2023/05/04 10:38:16;;;;;;;6.10;3.60;;;;;;;;;;5009982;28;20037;-86
2023/05/04 10:40:42;;;;;;;4.85;3.42;;;;;;;;;;5007966;28;20096;-84
2023/05/04 10:43:10;;;;;;;5.40;3.22;;;;;;;;;;5004670;28;20165;-84
2023/05/04 10:45:40;;;;;;;5.35;3.50;;;;;;;;;;5000066;28;20184;-86
2023/05/04 10:48:07;;;;;;;6.53;3.00;;;;;;;;;;4996934;28;20125;-86
2023/05/04 10:50:48;;;;;;;4.60;3.25;;;;;;;;;;4991798;28;20034;-86
2023/05/04 10:53:15;;;;;;;5.30;3.30;;;;;;;;;;4995274;28;20038;-85
2023/05/04 10:55:42;;;;;;;4.07;3.40;;;;;;;;;;5009062;28;20080;-85
2023/05/04 10:58:10;;;;;;;6.85;3.55;;;;;;;;;;5002861;28;20117;-85
2023/05/04 11:00:40;;;;;;;5.22;3.17;;;;;;;;;;5001203;28;20594;-85
2023/05/04 11:03:06;;;;;;;4.03;3.33;;;;;;;;;;4998658;28;20046;-85
2023/05/04 11:05:58;;;;;;;5.95;4.15;;;;;;;;;;4998976;28;20064;-85
2023/05/04 11:08:25;;;;;;;4.45;3.30;;;;;;;;;;5009608;28;20514;-85
2023/05/04 11:11:02;;;;;;;7.13;3.30;;;;;;;;;;5010295;28;20053;-85
2023/05/04 11:13:33;;;;;;;3.88;2.67;;;;;;;;;;5021737;28;20037;-85
2023/05/04 11:16:00;;;;;;;3.80;3.13;;;;;;;;;;5018031;28;20035;-88
2023/05/04 11:18:33;;;;;;;5.28;4.00;;;;;;;;;;5016910;28;20034;-88
2023/05/04 11:21:00;;;;;;;5.95;4.10;;;;;;;;;;5015508;28;20058;-88
2023/05/04 11:23:26;;;;;;;7.80;4.05;;;;;;;;;;4996237;28;20026;-87
2023/05/04 11:25:52;;;;;;;6.82;4.68;;;;;;;;;;5003252;28;20596;-88
2023/05/04 11:28:17;;;;;;;5.40;3.85;;;;;;;;;;5013991;28;20042;-88
2023/05/04 11:30:45;;;;;;;5.05;3.65;;;;;;;;;;5007211;28;20049;-86
2023/05/04 11:33:15;;;;;;;5.97;3.90;;;;;;;;;;5004701;28;20026;-88
2023/05/04 11:35:42;;;;;;;7.88;3.92;;;;;;;;;;5010129;28;20040;-88
2023/05/04 11:38:08;;;;;;;6.38;3.60;;;;;;;;;;5000707;28;20034;-88
2023/05/04 11:40:34;;;;;;;6.07;4.20;;;;;;;;;;5005745;28;20038;-88
2023/05/04 11:43:01;;;;;;;5.70;4.28;;;;;;;;;;4996419;28;20069;-87
2023/05/04 11:45:31;;;;;;;5.60;4.25;;;;;;;;;;5016103;28;20045;-88
2023/05/04 11:47:57;;;;;;;9.95;4.28;;;;;;;;;;4997885;28;20034;-87
2023/05/04 11:50:24;;;;;;;8.93;4.45;;;;;;;;;;5018122;28;20042;-88
2023/05/04 11:52:49;;;;;;;7.82;4.70;;;;;;;;;;5015957;28;20034;-87
2023/05/04 11:55:32;;;;;;;6.32;4.32;;;;;;;;;;4981029;28;20046;-88
2023/05/04 11:58:05;;;;;;;7.97;4.32;;;;;;;;;;4997156;28;20141;-88
2023/05/04 12:00:39;;;;;;;6.45;4.10;;;;;;;;;;4995899;28;20038;-88
2023/05/04 12:03:06;;;;;;;8.20;4.43;;;;;;;;;;5006841;28;20033;-87
2023/05/04 12:05:33;;;;;;;9.57;4.30;;;;;;;;;;5005934;28;20049;-88
2023/05/04 12:08:00;;;;;;;6.25;4.38;;;;;;;;;;5014889;28;20042;-88
2023/05/04 12:10:32;;;;;;;5.60;4.55;;;;;;;;;;5018640;28;20515;-87
2023/05/04 12:12:58;;;;;;;6.70;4.28;;;;;;;;;;5014111;28;20142;-88
2023/05/04 12:15:31;;;;;;;8.30;4.20;;;;;;;;;;5014004;28;20041;-88
2023/05/04 12:17:57;;;;;;;;;;;;;;;;;;4999094;28;20038;-85
2023/05/04 12:20:24;;;;;;;7.97;4.30;;;;;;;;;;5004041;28;19924;-88
2023/05/04 12:22:50;;;;;;;6.30;4.00;;;;;;;;;;5001831;28;20590;-89
2023/05/04 12:25:18;;;;;;;6.50;4.00;;;;;;;;;;4995623;28;20037;-88
2023/05/04 12:27:44;;;;;;;5.55;4.00;;;;;;;;;;5003585;28;20038;-88
2023/05/04 12:30:11;;;;;;;5.15;3.97;;;;;;;;;;5015831;28;20046;-88
2023/05/04 12:32:36;;;;;;;6.35;3.92;;;;;;;;;;5013433;28;20066;-87
2023/05/04 12:35:03;;;;;;;7.93;4.28;;;;;;;;;;5012882;28;20030;-87
2023/05/04 12:37:29;;;;;;;11.82;4.35;;;;;;;;;;5005069;28;20038;-87
2023/05/04 12:39:54;;;;;;;5.78;4.00;;;;;;;;;;5018848;28;20099;-87
2023/05/04 12:42:20;;;;;;;9.50;4.40;;;;;;;;;;5003787;28;20034;-89
2023/05/04 12:44:46;;;;;;;5.93;4.05;;;;;;;;;;5032774;28;20026;-88
2023/05/04 12:47:12;;;;;;;8.05;4.30;;;;;;;;;;5033876;28;20097;-87
2023/05/04 12:49:38;;;;;;;10.48;4.15;;;;;;;;;;5031457;28;20494;-87
2023/05/04 12:52:04;;;;;;;7.93;3.78;;;;;;;;;;5014863;28;20053;-87
2023/05/04 12:54:29;;;;;;;8.07;4.00;;;;;;;;;;5011724;28;20065;-87
2023/05/04 12:56:55;;;;;;;7.78;3.75;;;;;;;;;;5008849;28;20034;-87
2023/05/04 12:59:21;;;;;;;6.40;3.70;;;;;;;;;;5006117;28;20084;-87
2023/05/04 13:01:46;;;;;;;5.15;3.40;;;;;;;;;;5003868;28;20046;-87
2023/05/04 13:04:12;;;;;;;7.60;3.70;;;;;;;;;;5020136;28;20062;-87
2023/05/04 13:06:37;;;;;;;5.57;3.72;;;;;;;;;;5002852;28;20038;-87
2023/05/04 13:09:04;;;;;;;4.88;3.47;;;;;;;;;;5005773;28;20134;-87
2023/05/04 13:11:31;;;;;;;5.55;3.55;;;;;;;;;;5009342;28;20046;-87
2023/05/04 13:13:56;;;;;;;5.82;3.70;;;;;;;;;;5022993;28;20060;-87
2023/05/04 13:16:22;;;;;;;8.10;3.55;;;;;;;;;;5007924;28;20030;-87
2023/05/04 13:18:47;;;;;;;5.68;3.70;;;;;;;;;;5009568;28;20042;-87
2023/05/04 13:21:13;;;;;;;5.47;3.40;;;;;;;;;;5011012;28;20049;-88
2023/05/04 13:23:38;;;;;;;8.45;3.83;;;;;;;;;;5011693;28;20046;-87
2023/05/04 13:26:05;;;;;;;6.28;3.22;;;;;;;;;;5008549;28;20049;-87
2023/05/04 13:28:30;;;;;;;6.57;3.28;;;;;;;;;;5029131;28;20089;-88
2023/05/04 13:30:56;;;;;;;5.22;3.28;;;;;;;;;;5013626;28;20064;-88
2023/05/04 13:33:21;;;;;;;5.05;2.80;;;;;;;;;;5010488;28;20555;-88
2023/05/04 13:35:47;;;;;;;7.05;3.30;;;;;;;;;;5009538;28;20038;-88
2023/05/04 13:38:12;;;;;;;5.05;3.10;;;;;;;;;;5009502;28;20392;-88
2023/05/04 13:40:38;;;;;;;6.22;2.80;;;;;;;;;;5015900;28;20109;-88
2023/05/04 13:43:03;;;;;;;6.15;3.42;;;;;;;;;;5012642;28;20133;-88
2023/05/04 13:45:29;;;;;;;6.07;3.15;;;;;;;;;;5014864;28;20045;-88
2023/05/04 13:47:56;;;;;;;5.03;3.10;;;;;;;;;;5010643;28;20100;-88
2023/05/04 13:50:21;;;;;;;7.00;2.90;;;;;;;;;;5006128;28;20030;-88
2023/05/04 13:52:47;;;;;;;5.10;3.00;;;;;;;;;;5035895;28;20057;-88
2023/05/04 13:55:13;;;;;;;5.25;2.85;;;;;;;;;;5015895;28;20037;-88
2023/05/04 13:57:38;;;;;;;6.38;2.92;;;;;;;;;;5026592;28;20527;-88
2023/05/04 14:00:05;;;;;;;4.80;3.05;;;;;;;;;;5006396;28;20042;-88
2023/05/04 14:02:36;;;;;;;4.45;3.08;;;;;;;;;;5008347;28;20046;-88
2023/05/04 14:05:02;;;;;;;3.65;2.80;;;;;;;;;;5004784;28;20034;-88
2023/05/04 14:07:28;;;;;;;5.43;2.58;;;;;;;;;;5020696;28;20088;-87
2023/05/04 14:09:54;;;;;;;4.68;2.97;;;;;;;;;;5037366;28;20033;-88
2023/05/04 14:12:21;;;;;;;4.03;2.80;;;;;;;;;;5020804;28;20042;-88
2023/05/04 14:14:46;;;;;;;5.53;2.85;;;;;;;;;;4997801;28;20081;-89
2023/05/04 14:17:12;;;;;;;5.25;2.90;;;;;;;;;;5006391;28;20038;-88
2023/05/04 14:19:37;;;;;;;7.35;2.90;;;;;;;;;;5017142;28;20046;-86
2023/05/04 14:22:02;;;;;;;3.63;2.78;;;;;;;;;;5015631;28;20038;-86
2023/05/04 14:24:28;;;;;;;4.80;2.50;;;;;;;;;;5003017;28;20041;-87
2023/05/04 14:26:54;;;;;;;7.57;2.90;;;;;;;;;;5005120;28;20044;-86
2023/05/04 14:29:19;;;;;;;3.60;2.33;;;;;;;;;;5013721;28;20042;-86
2023/05/04 14:31:45;;;;;;;5.75;2.80;;;;;;;;;;5010495;28;20033;-86
2023/05/04 14:34:11;;;;;;;4.70;2.60;;;;;;;;;;5007303;28;20104;-87
2023/05/04 14:36:36;;;;;;;3.80;2.33;;;;;;;;;;5004667;28;20026;-86
2023/05/04 14:39:02;;;;;;;10.02;2.40;;;;;;;;;;5002797;28;20138;-86
2023/05/04 14:41:32;;;;;;;5.18;2.53;;;;;;;;;;5019172;28;20744;-85